sensor_id;sensor_type;location;lat;lon;timestamp;P1;durP1;ratioP1;P2;durP2;ratioP2
61897;SDS011;47850;50.274;18.908;2023-02-28T00:01:31;37.00;;;14.50;;
61897;SDS011;47850;50.274;18.908;2023-02-28T00:04:00;36.60;;;14.50;;
61897;SDS011;47850;50.274;18.908;2023-02-28T00:06:28;32.90;;;14.80;;
61897;SDS011;47850;50.274;18.908;2023-02-28T00:08:56;43.70;;;15.70;;
61897;SDS011;47850;50.274;18.908;2023-02-28T00:11:24;34.00;;;13.10;;
61897;SDS011;47850;50.274;18.908;2023-02-28T00:13:52;24.60;;;9.90;;
61897;SDS011;47850;50.274;18.908;2023-02-28T00:16:20;24.30;;;9.90;;
61897;SDS011;47850;50.274;18.908;2023-02-28T00:18:50;24.70;;;10.70;;
61897;SDS011;47850;50.274;18.908;2023-02-28T00:21:19;29.00;;;10.80;;
61897;SDS011;47850;50.274;18.908;2023-02-28T00:23:47;21.20;;;8.80;;
61897;SDS011;47850;50.274;18.908;2023-02-28T00:26:15;29.40;;;11.10;;
61897;SDS011;47850;50.274;18.908;2023-02-28T00:28:43;27.00;;;12.20;;
61897;SDS011;47850;50.274;18.908;2023-02-28T00:31:11;29.70;;;11.50;;
61897;SDS011;47850;50.274;18.908;2023-02-28T00:33:39;34.80;;;13.40;;
61897;SDS011;47850;50.274;18.908;2023-02-28T00:36:07;71.90;;;21.80;;
61897;SDS011;47850;50.274;18.908;2023-02-28T00:38:38;49.30;;;17.00;;
61897;SDS011;47850;50.274;18.908;2023-02-28T00:41:07;50.30;;;16.80;;
61897;SDS011;47850;50.274;18.908;2023-02-28T00:43:37;46.90;;;16.90;;
61897;SDS011;47850;50.274;18.908;2023-02-28T00:46:06;49.30;;;16.80;;
61897;SDS011;47850;50.274;18.908;2023-02-28T00:48:35;50.00;;;16.10;;
61897;SDS011;47850;50.274;18.908;2023-02-28T00:51:03;70.70;;;21.50;;
61897;SDS011;47850;50.274;18.908;2023-02-28T00:53:32;47.30;;;16.50;;
61897;SDS011;47850;50.274;18.908;2023-02-28T00:56:00;47.10;;;16.90;;
61897;SDS011;47850;50.274;18.908;2023-02-28T00:58:28;66.40;;;18.30;;
61897;SDS011;47850;50.274;18.908;2023-02-28T01:00:56;54.40;;;18.20;;
61897;SDS011;47850;50.274;18.908;2023-02-28T01:03:24;56.40;;;18.50;;
61897;SDS011;47850;50.274;18.908;2023-02-28T01:05:51;46.60;;;16.60;;
61897;SDS011;47850;50.274;18.908;2023-02-28T01:08:20;47.90;;;17.80;;
61897;SDS011;47850;50.274;18.908;2023-02-28T01:10:48;38.90;;;14.90;;
61897;SDS011;47850;50.274;18.908;2023-02-28T01:13:16;36.10;;;12.40;;
61897;SDS011;47850;50.274;18.908;2023-02-28T01:15:52;29.50;;;12.40;;
61897;SDS011;47850;50.274;18.908;2023-02-28T01:18:22;31.70;;;11.60;;
61897;SDS011;47850;50.274;18.908;2023-02-28T01:20:50;32.00;;;11.00;;
61897;SDS011;47850;50.274;18.908;2023-02-28T01:23:20;29.40;;;12.00;;
61897;SDS011;47850;50.274;18.908;2023-02-28T01:25:51;33.30;;;13.30;;
61897;SDS011;47850;50.274;18.908;2023-02-28T01:28:19;35.90;;;12.60;;
61897;SDS011;47850;50.274;18.908;2023-02-28T01:30:48;45.40;;;15.10;;
61897;SDS011;47850;50.274;18.908;2023-02-28T01:33:16;48.80;;;16.30;;
61897;SDS011;47850;50.274;18.908;2023-02-28T01:35:44;43.20;;;14.90;;
61897;SDS011;47850;50.274;18.908;2023-02-28T01:38:12;34.80;;;12.60;;
61897;SDS011;47850;50.274;18.908;2023-02-28T01:40:40;48.40;;;17.20;;
61897;SDS011;47850;50.274;18.908;2023-02-28T01:43:12;36.40;;;13.40;;
61897;SDS011;47850;50.274;18.908;2023-02-28T01:45:48;40.30;;;14.80;;
61897;SDS011;47850;50.274;18.908;2023-02-28T01:48:16;30.90;;;13.00;;
61897;SDS011;47850;50.274;18.908;2023-02-28T01:50:45;34.50;;;13.20;;
61897;SDS011;47850;50.274;18.908;2023-02-28T01:53:17;27.90;;;12.00;;
61897;SDS011;47850;50.274;18.908;2023-02-28T01:55:49;22.70;;;9.50;;
61897;SDS011;47850;50.274;18.908;2023-02-28T01:58:19;30.60;;;11.70;;
61897;SDS011;47850;50.274;18.908;2023-02-28T02:00:47;30.40;;;12.00;;
61897;SDS011;47850;50.274;18.908;2023-02-28T02:03:16;26.10;;;12.10;;
61897;SDS011;47850;50.274;18.908;2023-02-28T02:05:48;28.90;;;11.30;;
61897;SDS011;47850;50.274;18.908;2023-02-28T02:08:17;27.50;;;11.30;;
61897;SDS011;47850;50.274;18.908;2023-02-28T02:10:49;30.70;;;12.30;;
61897;SDS011;47850;50.274;18.908;2023-02-28T02:43:46;25.70;;;9.50;;
61897;SDS011;47850;50.274;18.908;2023-02-28T02:46:24;25.70;;;11.00;;
61897;SDS011;47850;50.274;18.908;2023-02-28T02:48:57;33.00;;;11.40;;
61897;SDS011;47850;50.274;18.908;2023-02-28T02:51:30;56.20;;;21.50;;
61897;SDS011;47850;50.274;18.908;2023-02-28T02:56:44;58.70;;;21.40;;
61897;SDS011;47850;50.274;18.908;2023-02-28T02:59:17;96.50;;;35.00;;
61897;SDS011;47850;50.274;18.908;2023-02-28T03:01:50;69.60;;;25.50;;
61897;SDS011;47850;50.274;18.908;2023-02-28T03:04:23;53.70;;;17.90;;
61897;SDS011;47850;50.274;18.908;2023-02-28T03:06:52;101.40;;;28.80;;
61897;SDS011;47850;50.274;18.908;2023-02-28T03:09:24;90.40;;;27.60;;
61897;SDS011;47850;50.274;18.908;2023-02-28T03:11:53;62.00;;;21.40;;
61897;SDS011;47850;50.274;18.908;2023-02-28T03:14:25;68.70;;;23.50;;
61897;SDS011;47850;50.274;18.908;2023-02-28T03:22:12;45.40;;;16.20;;
61897;SDS011;47850;50.274;18.908;2023-02-28T03:27:27;55.90;;;16.20;;
61897;SDS011;47850;50.274;18.908;2023-02-28T03:32:51;32.70;;;11.20;;
61897;SDS011;47850;50.274;18.908;2023-02-28T03:35:33;39.40;;;13.20;;
61897;SDS011;47850;50.274;18.908;2023-02-28T03:38:10;53.30;;;16.20;;
61897;SDS011;47850;50.274;18.908;2023-02-28T03:40:42;48.90;;;17.50;;
61897;SDS011;47850;50.274;18.908;2023-02-28T03:43:18;40.20;;;15.10;;
61897;SDS011;47850;50.274;18.908;2023-02-28T03:45:50;49.30;;;17.10;;
61897;SDS011;47850;50.274;18.908;2023-02-28T03:48:23;320.90;;;91.60;;
61897;SDS011;47850;50.274;18.908;2023-02-28T03:50:58;571.50;;;150.80;;
61897;SDS011;47850;50.274;18.908;2023-02-28T03:53:39;1202.20;;;319.10;;
61897;SDS011;47850;50.274;18.908;2023-02-28T03:56:16;942.30;;;236.40;;
61897;SDS011;47850;50.274;18.908;2023-02-28T03:59:04;766.80;;;208.70;;
61897;SDS011;47850;50.274;18.908;2023-02-28T04:01:42;590.00;;;146.90;;
61897;SDS011;47850;50.274;18.908;2023-02-28T04:04:12;419.80;;;97.40;;
61897;SDS011;47850;50.274;18.908;2023-02-28T04:06:42;243.50;;;60.30;;
61897;SDS011;47850;50.274;18.908;2023-02-28T04:09:12;236.90;;;64.00;;
61897;SDS011;47850;50.274;18.908;2023-02-28T04:14:19;128.70;;;37.70;;
61897;SDS011;47850;50.274;18.908;2023-02-28T04:16:47;107.00;;;37.80;;
61897;SDS011;47850;50.274;18.908;2023-02-28T04:19:15;108.60;;;38.30;;
61897;SDS011;47850;50.274;18.908;2023-02-28T04:21:44;62.80;;;25.40;;
61897;SDS011;47850;50.274;18.908;2023-02-28T04:24:15;50.30;;;21.90;;
61897;SDS011;47850;50.274;18.908;2023-02-28T04:26:45;40.80;;;18.20;;
61897;SDS011;47850;50.274;18.908;2023-02-28T04:31:47;29.90;;;13.40;;
61897;SDS011;47850;50.274;18.908;2023-02-28T04:34:15;42.20;;;17.10;;
61897;SDS011;47850;50.274;18.908;2023-02-28T04:36:43;40.90;;;17.80;;
61897;SDS011;47850;50.274;18.908;2023-02-28T04:39:13;49.60;;;20.00;;
61897;SDS011;47850;50.274;18.908;2023-02-28T04:41:41;30.70;;;13.70;;
61897;SDS011;47850;50.274;18.908;2023-02-28T04:44:09;28.60;;;11.40;;
61897;SDS011;47850;50.274;18.908;2023-02-28T04:46:36;29.60;;;12.00;;
61897;SDS011;47850;50.274;18.908;2023-02-28T04:49:04;25.30;;;12.10;;
61897;SDS011;47850;50.274;18.908;2023-02-28T04:51:32;31.40;;;12.30;;
61897;SDS011;47850;50.274;18.908;2023-02-28T04:54:00;25.40;;;11.30;;
61897;SDS011;47850;50.274;18.908;2023-02-28T04:56:28;30.30;;;12.80;;
61897;SDS011;47850;50.274;18.908;2023-02-28T04:58:55;28.40;;;10.20;;
61897;SDS011;47850;50.274;18.908;2023-02-28T05:01:24;24.20;;;12.00;;
61897;SDS011;47850;50.274;18.908;2023-02-28T05:03:55;28.70;;;12.70;;
61897;SDS011;47850;50.274;18.908;2023-02-28T05:06:25;33.60;;;13.10;;
61897;SDS011;47850;50.274;18.908;2023-02-28T05:08:54;37.90;;;15.50;;
61897;SDS011;47850;50.274;18.908;2023-02-28T05:11:26;28.20;;;12.30;;
61897;SDS011;47850;50.274;18.908;2023-02-28T05:13:56;30.30;;;12.90;;
61897;SDS011;47850;50.274;18.908;2023-02-28T05:16:24;37.10;;;14.00;;
61897;SDS011;47850;50.274;18.908;2023-02-28T05:18:52;40.20;;;16.20;;
61897;SDS011;47850;50.274;18.908;2023-02-28T05:24:00;48.70;;;19.60;;
61897;SDS011;47850;50.274;18.908;2023-02-28T05:26:31;54.50;;;22.20;;
61897;SDS011;47850;50.274;18.908;2023-02-28T05:29:01;48.40;;;21.40;;
61897;SDS011;47850;50.274;18.908;2023-02-28T05:31:29;100.50;;;32.80;;
61897;SDS011;47850;50.274;18.908;2023-02-28T05:33:57;94.20;;;33.60;;
61897;SDS011;47850;50.274;18.908;2023-02-28T05:36:25;61.40;;;22.50;;
61897;SDS011;47850;50.274;18.908;2023-02-28T05:38:53;51.30;;;22.10;;
61897;SDS011;47850;50.274;18.908;2023-02-28T05:41:21;57.50;;;23.90;;
61897;SDS011;47850;50.274;18.908;2023-02-28T05:43:49;57.80;;;25.30;;
61897;SDS011;47850;50.274;18.908;2023-02-28T05:46:17;50.50;;;22.70;;
61897;SDS011;47850;50.274;18.908;2023-02-28T05:48:46;50.10;;;22.00;;
61897;SDS011;47850;50.274;18.908;2023-02-28T05:51:15;55.60;;;24.50;;
61897;SDS011;47850;50.274;18.908;2023-02-28T05:53:43;56.60;;;22.60;;
61897;SDS011;47850;50.274;18.908;2023-02-28T05:56:11;58.80;;;23.60;;
61897;SDS011;47850;50.274;18.908;2023-02-28T05:58:39;48.30;;;19.30;;
61897;SDS011;47850;50.274;18.908;2023-02-28T06:01:21;41.60;;;17.50;;
61897;SDS011;47850;50.274;18.908;2023-02-28T06:03:51;45.50;;;18.20;;
61897;SDS011;47850;50.274;18.908;2023-02-28T06:06:19;51.40;;;20.00;;
61897;SDS011;47850;50.274;18.908;2023-02-28T06:08:47;39.90;;;17.90;;
61897;SDS011;47850;50.274;18.908;2023-02-28T06:11:15;39.40;;;16.20;;
61897;SDS011;47850;50.274;18.908;2023-02-28T06:13:43;47.60;;;20.20;;
61897;SDS011;47850;50.274;18.908;2023-02-28T06:16:11;154.20;;;47.60;;
61897;SDS011;47850;50.274;18.908;2023-02-28T06:18:39;81.20;;;29.30;;
61897;SDS011;47850;50.274;18.908;2023-02-28T06:21:07;84.00;;;30.40;;
61897;SDS011;47850;50.274;18.908;2023-02-28T06:23:36;75.40;;;29.90;;
61897;SDS011;47850;50.274;18.908;2023-02-28T06:26:04;61.20;;;26.20;;
61897;SDS011;47850;50.274;18.908;2023-02-28T06:28:33;51.70;;;20.90;;
61897;SDS011;47850;50.274;18.908;2023-02-28T06:31:05;60.20;;;22.80;;
61897;SDS011;47850;50.274;18.908;2023-02-28T06:33:37;84.30;;;31.50;;
61897;SDS011;47850;50.274;18.908;2023-02-28T06:36:07;67.00;;;27.20;;
61897;SDS011;47850;50.274;18.908;2023-02-28T06:38:36;73.60;;;27.50;;
61897;SDS011;47850;50.274;18.908;2023-02-28T06:41:04;69.50;;;24.90;;
61897;SDS011;47850;50.274;18.908;2023-02-28T06:43:34;56.70;;;23.80;;
61897;SDS011;47850;50.274;18.908;2023-02-28T06:46:05;59.00;;;22.60;;
61897;SDS011;47850;50.274;18.908;2023-02-28T06:48:35;46.00;;;18.60;;
61897;SDS011;47850;50.274;18.908;2023-02-28T06:51:04;59.50;;;22.70;;
61897;SDS011;47850;50.274;18.908;2023-02-28T06:53:34;79.40;;;29.00;;
61897;SDS011;47850;50.274;18.908;2023-02-28T06:56:04;86.10;;;34.10;;
61897;SDS011;47850;50.274;18.908;2023-02-28T06:58:37;69.50;;;26.60;;
61897;SDS011;47850;50.274;18.908;2023-02-28T07:01:06;70.40;;;27.10;;
61897;SDS011;47850;50.274;18.908;2023-02-28T07:03:35;66.50;;;27.00;;
61897;SDS011;47850;50.274;18.908;2023-02-28T07:06:04;50.00;;;21.80;;
61897;SDS011;47850;50.274;18.908;2023-02-28T07:08:33;58.80;;;24.80;;
61897;SDS011;47850;50.274;18.908;2023-02-28T07:13:31;47.20;;;21.40;;
61897;SDS011;47850;50.274;18.908;2023-02-28T07:16:00;48.60;;;23.50;;
61897;SDS011;47850;50.274;18.908;2023-02-28T07:18:30;45.10;;;20.80;;
61897;SDS011;47850;50.274;18.908;2023-02-28T07:20:58;52.10;;;22.40;;
61897;SDS011;47850;50.274;18.908;2023-02-28T07:23:29;45.80;;;18.20;;
61897;SDS011;47850;50.274;18.908;2023-02-28T07:25:57;44.00;;;19.90;;
61897;SDS011;47850;50.274;18.908;2023-02-28T07:28:24;38.50;;;14.70;;
61897;SDS011;47850;50.274;18.908;2023-02-28T07:30:52;44.80;;;20.70;;
61897;SDS011;47850;50.274;18.908;2023-02-28T07:33:20;51.60;;;23.50;;
61897;SDS011;47850;50.274;18.908;2023-02-28T07:35:48;69.50;;;24.30;;
61897;SDS011;47850;50.274;18.908;2023-02-28T07:38:16;50.30;;;19.90;;
61897;SDS011;47850;50.274;18.908;2023-02-28T07:40:44;54.00;;;22.10;;
61897;SDS011;47850;50.274;18.908;2023-02-28T07:43:12;50.90;;;20.50;;
61897;SDS011;47850;50.274;18.908;2023-02-28T07:45:40;58.60;;;23.60;;
61897;SDS011;47850;50.274;18.908;2023-02-28T07:48:08;43.40;;;18.50;;
61897;SDS011;47850;50.274;18.908;2023-02-28T07:50:37;44.60;;;18.20;;
61897;SDS011;47850;50.274;18.908;2023-02-28T07:53:05;56.40;;;22.80;;
61897;SDS011;47850;50.274;18.908;2023-02-28T07:55:33;34.40;;;15.30;;
61897;SDS011;47850;50.274;18.908;2023-02-28T07:58:01;74.80;;;25.10;;
61897;SDS011;47850;50.274;18.908;2023-02-28T08:00:29;95.90;;;32.00;;
61897;SDS011;47850;50.274;18.908;2023-02-28T08:02:58;104.30;;;31.80;;
61897;SDS011;47850;50.274;18.908;2023-02-28T08:05:26;79.90;;;28.70;;
61897;SDS011;47850;50.274;18.908;2023-02-28T08:07:54;68.90;;;24.30;;
61897;SDS011;47850;50.274;18.908;2023-02-28T08:10:22;51.70;;;19.40;;
61897;SDS011;47850;50.274;18.908;2023-02-28T08:12:51;100.30;;;33.40;;
61897;SDS011;47850;50.274;18.908;2023-02-28T08:15:19;88.50;;;28.30;;
61897;SDS011;47850;50.274;18.908;2023-02-28T08:17:47;102.60;;;31.30;;
61897;SDS011;47850;50.274;18.908;2023-02-28T08:20:14;86.10;;;31.60;;
61897;SDS011;47850;50.274;18.908;2023-02-28T08:22:44;92.30;;;32.30;;
61897;SDS011;47850;50.274;18.908;2023-02-28T08:25:12;64.00;;;23.60;;
61897;SDS011;47850;50.274;18.908;2023-02-28T08:27:40;101.90;;;31.90;;
61897;SDS011;47850;50.274;18.908;2023-02-28T08:30:11;87.30;;;30.80;;
61897;SDS011;47850;50.274;18.908;2023-02-28T08:32:41;70.00;;;23.80;;
61897;SDS011;47850;50.274;18.908;2023-02-28T08:35:09;39.90;;;14.90;;
61897;SDS011;47850;50.274;18.908;2023-02-28T08:37:37;45.20;;;16.90;;
61897;SDS011;47850;50.274;18.908;2023-02-28T08:40:05;70.10;;;23.90;;
61897;SDS011;47850;50.274;18.908;2023-02-28T08:42:34;37.50;;;15.50;;
61897;SDS011;47850;50.274;18.908;2023-02-28T08:45:02;45.80;;;16.00;;
61897;SDS011;47850;50.274;18.908;2023-02-28T08:47:31;33.70;;;13.00;;
61897;SDS011;47850;50.274;18.908;2023-02-28T08:49:59;51.50;;;19.80;;
61897;SDS011;47850;50.274;18.908;2023-02-28T08:52:27;47.00;;;18.60;;
61897;SDS011;47850;50.274;18.908;2023-02-28T08:54:54;39.90;;;14.70;;
61897;SDS011;47850;50.274;18.908;2023-02-28T08:57:22;31.70;;;13.30;;
61897;SDS011;47850;50.274;18.908;2023-02-28T08:59:50;27.20;;;13.00;;
61897;SDS011;47850;50.274;18.908;2023-02-28T09:02:18;26.00;;;11.90;;
61897;SDS011;47850;50.274;18.908;2023-02-28T09:04:47;19.70;;;9.20;;
61897;SDS011;47850;50.274;18.908;2023-02-28T09:07:15;22.30;;;12.60;;
61897;SDS011;47850;50.274;18.908;2023-02-28T09:09:43;26.80;;;14.50;;
61897;SDS011;47850;50.274;18.908;2023-02-28T09:12:22;35.90;;;16.00;;
61897;SDS011;47850;50.274;18.908;2023-02-28T09:14:53;31.70;;;14.50;;
61897;SDS011;47850;50.274;18.908;2023-02-28T09:17:21;36.70;;;14.30;;
61897;SDS011;47850;50.274;18.908;2023-02-28T09:19:49;58.10;;;23.70;;
61897;SDS011;47850;50.274;18.908;2023-02-28T09:22:17;49.50;;;19.90;;
61897;SDS011;47850;50.274;18.908;2023-02-28T09:24:45;136.50;;;36.60;;
61897;SDS011;47850;50.274;18.908;2023-02-28T09:27:13;25.50;;;11.40;;
61897;SDS011;47850;50.274;18.908;2023-02-28T09:29:41;46.20;;;17.90;;
61897;SDS011;47850;50.274;18.908;2023-02-28T09:32:09;79.40;;;27.30;;
61897;SDS011;47850;50.274;18.908;2023-02-28T09:34:37;101.10;;;30.70;;
61897;SDS011;47850;50.274;18.908;2023-02-28T09:37:05;76.60;;;33.00;;
61897;SDS011;47850;50.274;18.908;2023-02-28T09:39:32;83.90;;;35.90;;
61897;SDS011;47850;50.274;18.908;2023-02-28T09:42:00;44.00;;;19.20;;
61897;SDS011;47850;50.274;18.908;2023-02-28T09:44:35;206.30;;;57.80;;
61897;SDS011;47850;50.274;18.908;2023-02-28T09:47:26;95.40;;;37.90;;
61897;SDS011;47850;50.274;18.908;2023-02-28T09:49:54;86.30;;;33.50;;
61897;SDS011;47850;50.274;18.908;2023-02-28T09:52:28;73.00;;;26.80;;
61897;SDS011;47850;50.274;18.908;2023-02-28T09:55:01;80.20;;;29.80;;
61897;SDS011;47850;50.274;18.908;2023-02-28T09:57:47;65.60;;;27.90;;
61897;SDS011;47850;50.274;18.908;2023-02-28T10:00:32;77.50;;;29.20;;
61897;SDS011;47850;50.274;18.908;2023-02-28T10:06:28;119.70;;;40.00;;
61897;SDS011;47850;50.274;18.908;2023-02-28T10:09:03;70.80;;;24.80;;
61897;SDS011;47850;50.274;18.908;2023-02-28T10:11:33;106.00;;;38.30;;
61897;SDS011;47850;50.274;18.908;2023-02-28T10:17:15;92.20;;;34.70;;
61897;SDS011;47850;50.274;18.908;2023-02-28T10:25:17;40.40;;;18.20;;
61897;SDS011;47850;50.274;18.908;2023-02-28T10:27:49;41.50;;;18.60;;
61897;SDS011;47850;50.274;18.908;2023-02-28T10:30:20;43.30;;;17.90;;
61897;SDS011;47850;50.274;18.908;2023-02-28T10:32:51;48.20;;;18.40;;
61897;SDS011;47850;50.274;18.908;2023-02-28T10:35:24;53.50;;;23.70;;
61897;SDS011;47850;50.274;18.908;2023-02-28T10:37:55;53.00;;;21.00;;
61897;SDS011;47850;50.274;18.908;2023-02-28T10:43:02;83.10;;;25.20;;
61897;SDS011;47850;50.274;18.908;2023-02-28T10:45:32;92.10;;;25.50;;
61897;SDS011;47850;50.274;18.908;2023-02-28T10:53:39;39.10;;;17.20;;
61897;SDS011;47850;50.274;18.908;2023-02-28T10:56:15;34.20;;;15.60;;
61897;SDS011;47850;50.274;18.908;2023-02-28T10:58:59;76.60;;;34.30;;
61897;SDS011;47850;50.274;18.908;2023-02-28T11:03:59;34.30;;;15.40;;
61897;SDS011;47850;50.274;18.908;2023-02-28T11:06:29;26.10;;;13.60;;
61897;SDS011;47850;50.274;18.908;2023-02-28T11:09:00;26.30;;;13.70;;
61897;SDS011;47850;50.274;18.908;2023-02-28T11:11:40;26.80;;;13.70;;
61897;SDS011;47850;50.274;18.908;2023-02-28T11:14:30;30.50;;;15.50;;
61897;SDS011;47850;50.274;18.908;2023-02-28T11:17:14;49.70;;;23.80;;
61897;SDS011;47850;50.274;18.908;2023-02-28T11:19:51;30.00;;;13.90;;
61897;SDS011;47850;50.274;18.908;2023-02-28T11:22:26;81.90;;;36.90;;
61897;SDS011;47850;50.274;18.908;2023-02-28T11:24:58;111.60;;;47.90;;
61897;SDS011;47850;50.274;18.908;2023-02-28T11:29:58;75.40;;;34.00;;
61897;SDS011;47850;50.274;18.908;2023-02-28T11:32:30;61.80;;;25.80;;
61897;SDS011;47850;50.274;18.908;2023-02-28T11:37:39;55.00;;;24.00;;
61897;SDS011;47850;50.274;18.908;2023-02-28T11:40:14;27.00;;;14.60;;
61897;SDS011;47850;50.274;18.908;2023-02-28T11:51:08;48.40;;;21.80;;
61897;SDS011;47850;50.274;18.908;2023-02-28T11:56:46;32.20;;;16.60;;
61897;SDS011;47850;50.274;18.908;2023-02-28T11:59:24;37.40;;;20.40;;
61897;SDS011;47850;50.274;18.908;2023-02-28T12:04:49;36.80;;;16.70;;
61897;SDS011;47850;50.274;18.908;2023-02-28T12:13:08;42.30;;;20.50;;
61897;SDS011;47850;50.274;18.908;2023-02-28T12:15:57;56.10;;;22.70;;
61897;SDS011;47850;50.274;18.908;2023-02-28T12:18:49;52.60;;;22.20;;
61897;SDS011;47850;50.274;18.908;2023-02-28T12:24:31;37.10;;;16.80;;
61897;SDS011;47850;50.274;18.908;2023-02-28T12:27:17;102.90;;;37.70;;
61897;SDS011;47850;50.274;18.908;2023-02-28T12:29:54;65.00;;;26.50;;
61897;SDS011;47850;50.274;18.908;2023-02-28T12:32:38;62.30;;;27.50;;
61897;SDS011;47850;50.274;18.908;2023-02-28T12:40:45;55.50;;;27.40;;
61897;SDS011;47850;50.274;18.908;2023-02-28T12:43:18;26.60;;;15.20;;
61897;SDS011;47850;50.274;18.908;2023-02-28T12:45:53;27.90;;;17.50;;
61897;SDS011;47850;50.274;18.908;2023-02-28T12:48:29;32.70;;;20.40;;
61897;SDS011;47850;50.274;18.908;2023-02-28T12:51:04;27.20;;;16.20;;
61897;SDS011;47850;50.274;18.908;2023-02-28T12:53:53;24.50;;;12.30;;
61897;SDS011;47850;50.274;18.908;2023-02-28T12:59:18;25.80;;;14.60;;
61897;SDS011;47850;50.274;18.908;2023-02-28T13:10:03;42.90;;;25.60;;
61897;SDS011;47850;50.274;18.908;2023-02-28T13:12:35;69.80;;;26.30;;
61897;SDS011;47850;50.274;18.908;2023-02-28T13:15:22;23.30;;;15.20;;
61897;SDS011;47850;50.274;18.908;2023-02-28T13:17:56;61.00;;;23.30;;
61897;SDS011;47850;50.274;18.908;2023-02-28T13:20:33;58.90;;;22.40;;
61897;SDS011;47850;50.274;18.908;2023-02-28T13:23:16;70.20;;;25.80;;
61897;SDS011;47850;50.274;18.908;2023-02-28T13:39:49;69.30;;;26.20;;
61897;SDS011;47850;50.274;18.908;2023-02-28T13:42:33;60.90;;;25.30;;
61897;SDS011;47850;50.274;18.908;2023-02-28T13:47:33;42.30;;;26.00;;
61897;SDS011;47850;50.274;18.908;2023-02-28T13:53:12;70.00;;;35.80;;
61897;SDS011;47850;50.274;18.908;2023-02-28T14:03:48;58.30;;;33.60;;
61897;SDS011;47850;50.274;18.908;2023-02-28T14:06:25;62.80;;;30.50;;
61897;SDS011;47850;50.274;18.908;2023-02-28T14:11:48;36.50;;;19.80;;
61897;SDS011;47850;50.274;18.908;2023-02-28T14:17:03;68.00;;;38.80;;
61897;SDS011;47850;50.274;18.908;2023-02-28T14:19:34;67.40;;;43.00;;
61897;SDS011;47850;50.274;18.908;2023-02-28T14:27:58;23.70;;;14.40;;
61897;SDS011;47850;50.274;18.908;2023-02-28T14:36:08;21.00;;;13.70;;
61897;SDS011;47850;50.274;18.908;2023-02-28T14:41:18;37.90;;;20.10;;
61897;SDS011;47850;50.274;18.908;2023-02-28T14:43:59;26.70;;;16.30;;
61897;SDS011;47850;50.274;18.908;2023-02-28T14:46:37;172.80;;;92.50;;
61897;SDS011;47850;50.274;18.908;2023-02-28T14:49:26;70.00;;;39.60;;
61897;SDS011;47850;50.274;18.908;2023-02-28T14:54:43;122.50;;;89.50;;
61897;SDS011;47850;50.274;18.908;2023-02-28T14:57:22;131.50;;;64.20;;
61897;SDS011;47850;50.274;18.908;2023-02-28T15:00:13;81.20;;;54.20;;
61897;SDS011;47850;50.274;18.908;2023-02-28T15:02:58;59.20;;;41.30;;
61897;SDS011;47850;50.274;18.908;2023-02-28T15:05:31;25.80;;;16.70;;
61897;SDS011;47850;50.274;18.908;2023-02-28T15:08:02;34.40;;;16.90;;
61897;SDS011;47850;50.274;18.908;2023-02-28T15:10:30;47.50;;;35.40;;
61897;SDS011;47850;50.274;18.908;2023-02-28T15:18:07;57.20;;;33.60;;
61897;SDS011;47850;50.274;18.908;2023-02-28T15:20:43;45.80;;;28.90;;
61897;SDS011;47850;50.274;18.908;2023-02-28T15:23:12;48.90;;;31.50;;
61897;SDS011;47850;50.274;18.908;2023-02-28T15:25:43;56.00;;;35.10;;
61897;SDS011;47850;50.274;18.908;2023-02-28T15:28:16;285.60;;;147.90;;
61897;SDS011;47850;50.274;18.908;2023-02-28T15:30:57;270.70;;;123.60;;
61897;SDS011;47850;50.274;18.908;2023-02-28T15:33:31;289.40;;;122.50;;
61897;SDS011;47850;50.274;18.908;2023-02-28T15:38:51;70.00;;;32.70;;
61897;SDS011;47850;50.274;18.908;2023-02-28T15:41:27;317.10;;;143.30;;
61897;SDS011;47850;50.274;18.908;2023-02-28T15:44:23;174.50;;;85.20;;
61897;SDS011;47850;50.274;18.908;2023-02-28T15:46:55;170.40;;;74.90;;
61897;SDS011;47850;50.274;18.908;2023-02-28T15:49:31;178.80;;;84.90;;
61897;SDS011;47850;50.274;18.908;2023-02-28T15:58:00;223.00;;;112.20;;
61897;SDS011;47850;50.274;18.908;2023-02-28T16:00:30;129.30;;;66.60;;
61897;SDS011;47850;50.274;18.908;2023-02-28T16:05:31;63.70;;;33.70;;
61897;SDS011;47850;50.274;18.908;2023-02-28T16:08:13;87.50;;;39.30;;
61897;SDS011;47850;50.274;18.908;2023-02-28T16:10:42;120.60;;;48.80;;
61897;SDS011;47850;50.274;18.908;2023-02-28T16:13:11;68.30;;;31.70;;
61897;SDS011;47850;50.274;18.908;2023-02-28T16:15:42;62.00;;;32.00;;
61897;SDS011;47850;50.274;18.908;2023-02-28T16:18:11;50.40;;;24.40;;
61897;SDS011;47850;50.274;18.908;2023-02-28T16:20:40;104.10;;;48.30;;
61897;SDS011;47850;50.274;18.908;2023-02-28T16:23:08;67.50;;;32.50;;
61897;SDS011;47850;50.274;18.908;2023-02-28T16:25:37;76.40;;;34.90;;
61897;SDS011;47850;50.274;18.908;2023-02-28T16:28:30;78.20;;;37.20;;
61897;SDS011;47850;50.274;18.908;2023-02-28T16:31:00;94.70;;;37.50;;
61897;SDS011;47850;50.274;18.908;2023-02-28T16:33:30;208.40;;;88.50;;
61897;SDS011;47850;50.274;18.908;2023-02-28T16:35:59;393.20;;;179.90;;
61897;SDS011;47850;50.274;18.908;2023-02-28T16:38:28;213.10;;;84.30;;
61897;SDS011;47850;50.274;18.908;2023-02-28T16:40:56;128.90;;;60.10;;
61897;SDS011;47850;50.274;18.908;2023-02-28T16:43:27;141.10;;;68.40;;
61897;SDS011;47850;50.274;18.908;2023-02-28T16:45:56;137.50;;;64.60;;
61897;SDS011;47850;50.274;18.908;2023-02-28T16:48:28;145.50;;;61.80;;
61897;SDS011;47850;50.274;18.908;2023-02-28T16:50:58;187.10;;;74.40;;
61897;SDS011;47850;50.274;18.908;2023-02-28T16:53:26;229.60;;;94.20;;
61897;SDS011;47850;50.274;18.908;2023-02-28T16:55:54;258.00;;;96.90;;
61897;SDS011;47850;50.274;18.908;2023-02-28T16:58:22;321.50;;;124.70;;
61897;SDS011;47850;50.274;18.908;2023-02-28T17:00:52;392.00;;;141.40;;
61897;SDS011;47850;50.274;18.908;2023-02-28T17:03:24;356.70;;;115.50;;
61897;SDS011;47850;50.274;18.908;2023-02-28T17:05:55;403.60;;;139.20;;
61897;SDS011;47850;50.274;18.908;2023-02-28T17:08:26;196.90;;;67.50;;
61897;SDS011;47850;50.274;18.908;2023-02-28T17:10:57;192.80;;;70.90;;
61897;SDS011;47850;50.274;18.908;2023-02-28T17:13:26;307.90;;;101.80;;
61897;SDS011;47850;50.274;18.908;2023-02-28T17:15:54;157.40;;;56.60;;
61897;SDS011;47850;50.274;18.908;2023-02-28T17:18:22;131.40;;;45.80;;
61897;SDS011;47850;50.274;18.908;2023-02-28T17:20:49;344.00;;;114.10;;
61897;SDS011;47850;50.274;18.908;2023-02-28T17:23:17;337.90;;;109.90;;
61897;SDS011;47850;50.274;18.908;2023-02-28T17:25:45;213.00;;;68.30;;
61897;SDS011;47850;50.274;18.908;2023-02-28T17:28:20;205.90;;;69.60;;
61897;SDS011;47850;50.274;18.908;2023-02-28T17:30:49;284.00;;;85.10;;
61897;SDS011;47850;50.274;18.908;2023-02-28T17:33:17;270.00;;;82.20;;
61897;SDS011;47850;50.274;18.908;2023-02-28T17:35:45;279.20;;;82.00;;
61897;SDS011;47850;50.274;18.908;2023-02-28T17:38:16;189.40;;;56.10;;